Terminal Aerodrome Forecast
Issued by NWS Cleveland, OH

Home | Current Version | Previous Version | Text Only | Print | Product List | Glossary On
Versions: 1 2 3 4 5 6 7 8 9 10 11 12 13 14 15 16
000
FTUS41 KCLE 182322
TAFYNG
TAF
KYNG 182322Z 1900/1924 25007KT 1 1/2SM -DZ OVC004
      TEMPO 1900/1904 3SM BR OVC009
     FM190400 22005KT 4SM BR OVC004
     FM191600 22006KT P6SM OVC009
     FM191800 22005KT P6SM OVC015
     FM192000 VRB03KT P6SM SCT250=

USA.gov is the U.S. government's official web portal to all federal, state and local government web resources and services.